Latest Coastal Weather Observations for Neptune Island

IDT60701

Issued at 1:12 pm EST Tuesday 30 August 2016 (issued every 10 minutes, with the page automatically refreshed every 10 minutes)

About coastal observations | Map of coastal stations | Coastal observations for TAS | Marine services | Other Formats
Station Details ID: 018115 Name: NEPTUNE ISLAND Lat: -35.34 Lon: 136.12 Height: 32.0 m
Data from the previous 72 hours. | See also: Recent months at Neptune Island
Date/Time
EST
Temp
°C
Wind Pressure Rain since
9am
mm
Weather Cloud Vis
km
Sea
Height
m
Swell
Dir  Spd
kts
Gust
kts
hPa Trend Height
m
Period
s
Dir
30/01:00pm 17.5 N 11 13 1008.8 - 0.0 - - - - - - -
30/12:30pm 17.1 N 11 13 1009.1 - 0.0 - - - - - - -
30/12:00pm 16.5 N 13 15 1009.4 - 0.0 - - - - - - -
30/11:30am 16.9 N 14 17 1009.5 - 0.0 - - - - - - -
30/11:00am 15.9 NNE 17 20 1009.3 - 0.0 - - - - - - -
30/10:30am 15.1 NNE 18 21 1009.3 - 0.0 - - - - - - -
30/10:00am 14.7 NNE 19 22 1009.4 - 0.0 - - - - - - -
30/09:30am 14.6 NNE 19 21 1009.4 - 1.6 - - - - - - -
30/09:00am 14.7 NNE 18 21 1009.3 - 1.6 - - - - - - -
30/08:30am 14.6 NNE 18 21 1009.1 - 1.6 - - - - - - -
30/08:00am 14.5 NNE 19 22 1008.9 - 1.6 - - - - - - -
30/07:30am 14.4 NNE 17 22 1008.9 - 1.6 - - - - - - -
30/07:00am 14.1 NNE 17 20 1008.5 - 1.6 - - - - - - -
30/06:30am 14.1 NNE 17 19 1008.6 - 1.6 - - - - - - -
30/06:00am 14.0 NNE 17 19 1008.5 - 1.6 - - - - - - -
30/05:30am 14.0 NNE 17 19 1008.4 - 1.6 - - - - - - -
30/05:00am 14.1 NNE 16 19 1008.6 - 1.6 - - - - - - -
30/04:30am 14.0 N 13 15 1008.3 - 1.6 - - - - - - -
30/04:00am 13.9 NNE 13 15 1008.6 - 1.6 - - - - - - -
30/03:30am 13.9 N 15 17 1008.9 - 1.6 Recent precip. - - - - - -
30/03:00am 14.0 NNE 13 14 1009.4 - 1.6 - - - - - - -
30/02:30am 14.0 N 11 13 1009.7 - 1.4 - - - - - - -
30/02:00am 13.8 NNE 14 16 1009.6 - 1.2 - - - - - - -
30/01:30am 13.9 N 8 10 1009.5 - 0.6 - - - - - - -
30/01:00am 14.1 NW 8 11 1009.7 - 0.4 - - - - - - -
30/12:30am 14.2 WNW 11 14 1009.9 - 0.2 Rain - - - - - -
30/12:00am 14.5 W 9 14 1009.6 - 0.0 - - - - - - -
 
Date/Time
EST
Temp
°C
Wind Pressure Rain since
9am
mm
Weather Cloud Vis
km
Sea
Height
m
Swell
Dir  Spd
kts
Gust
kts
hPa Trend Height
m
Period
s
Dir
29/11:30pm 14.4 WSW 15 18 1009.3 - 0.0 - - - - - - -
29/11:00pm 14.6 WSW 16 19 1009.4 - 0.0 - - - - - - -
29/10:30pm 15.4 W 9 11 1009.4 - 0.0 - - - - - - -
29/10:00pm 15.5 NNW 5 6 1009.5 - 0.0 - - - - - - -
29/09:30pm 15.4 N 5 5 1009.1 - 0.0 - - - - - - -
29/09:00pm 15.4 NNE 3 5 1008.7 - 0.0 - - - - - - -
29/08:30pm 15.6 NNE 5 6 1008.4 - 0.0 - - - - - - -
29/08:00pm 15.5 NNE 8 10 1008.4 - 0.0 - - - - - - -
29/07:30pm 15.2 NNE 7 8 1008.7 - 0.0 - - - - - - -
29/07:00pm 15.2 NNE 11 14 1008.5 - 0.0 - - - - - - -
29/06:30pm 15.3 N 12 15 1008.2 - 0.0 - - - - - - -
29/06:00pm 15.7 NNE 13 15 1007.9 - 0.0 - - - - - - -
29/05:30pm 15.8 NNE 15 17 1007.4 - 0.0 - - - - - - -
29/05:00pm 15.9 NE 13 18 1007.2 - 0.0 - - - - - - -
29/04:30pm 16.0 NE 14 18 1007.3 - 0.0 - - - - - - -
29/04:00pm 16.4 NNE 16 19 1007.4 - 0.0 - - - - - - -
29/03:30pm 16.2 NE 15 20 1007.0 - 0.0 - - - - - - -
29/03:00pm 16.4 NNE 17 21 1007.1 - 0.0 - - - - - - -
29/02:30pm 16.7 NE 18 22 1007.2 - 0.0 - - - - - - -
29/02:00pm 16.3 NE 18 26 1007.4 - 0.0 - - - - - - -
29/01:30pm 16.6 NE 21 27 1007.6 - 0.0 - - - - - - -
29/01:00pm 16.6 NNE 23 29 1007.9 - 0.0 - - - - - - -
29/12:30pm 16.3 NNE 25 31 1008.1 - 0.0 - - - - - - -
29/12:00pm 15.7 NNE 25 32 1008.3 - 0.0 - - - - - - -
29/11:30am 15.9 NNE 25 31 1008.5 - 0.0 - - - - - - -
29/11:00am 15.7 NE 22 29 1008.6 - 0.0 - - - - - - -
29/10:30am 16.2 NNE 26 33 1008.9 - 0.0 - - - - - - -
29/10:00am 15.9 NE 24 34 1009.2 - 0.0 - - - - - - -
29/09:44am 15.6 NE 23 34 1009.2 - 0.0 - - - - - - -
29/09:30am 15.8 NE 20 27 1009.3 - 1.2 - - - - - - -
29/09:00am 15.7 NE 19 26 1009.5 - 1.2 - - - - - - -
29/08:30am 15.0 NE 20 30 1009.4 - 1.2 - - - - - - -
29/08:22am 14.7 NE 20 30 1009.2 - 1.2 - - - - - - -
29/08:00am 14.6 NE 19 26 1009.4 - 1.2 - - - - - - -
29/07:30am 14.6 NE 19 27 1009.4 - 1.2 - - - - - - -
29/07:00am 14.4 NE 20 27 1009.4 - 0.8 - - - - - - -
29/06:30am 15.0 NE 20 28 1009.0 - 0.6 - - - - - - -
29/06:05am 15.0 NE 20 30 1009.1 - 0.6 - - - - - - -
29/06:00am 14.9 NE 21 30 1009.1 - 0.6 - - - - - - -
29/05:30am 15.1 NE 21 30 1009.0 - 0.6 - - - - - - -
29/05:00am 14.7 NE 19 24 1009.3 - 0.4 - - - - - - -
29/04:30am 14.5 NE 22 28 1008.8 - 0.4 - - - - - - -
29/04:00am 14.5 NE 23 31 1008.8 - 0.4 - - - - - - -
29/03:51am 14.5 NE 21 31 1009.0 - 0.4 - - - - - - -
29/03:30am 14.7 NE 21 29 1009.0 - 0.4 - - - - - - -
29/03:00am 14.9 NE 19 26 1009.3 - 0.4 - - - - - - -
29/02:30am 15.2 NE 16 23 1009.8 - 0.4 - - - - - - -
29/02:00am 15.5 NNE 20 28 1010.3 - 0.4 - - - - - - -
29/01:30am 15.4 NNE 21 25 1010.3 - 0.4 - - - - - - -
29/01:00am 15.3 NE 17 23 1010.6 - 0.4 - - - - - - -
29/12:30am 15.0 NE 14 19 1010.8 - 0.4 - - - - - - -
29/12:00am 15.1 NE 14 18 1010.7 - 0.4 - - - - - - -
 
Date/Time
EST
Temp
°C
Wind Pressure Rain since
9am
mm
Weather Cloud Vis
km
Sea
Height
m
Swell
Dir  Spd
kts
Gust
kts
hPa Trend Height
m
Period
s
Dir
28/11:30pm 15.0 NE 12 17 1010.9 - 0.4 - - - - - - -
28/11:00pm 15.1 NNE 20 25 1010.9 - 0.2 - - - - - - -
28/10:30pm 15.4 NNE 15 17 1010.8 - 0.0 - - - - - - -
28/10:00pm 15.8 N 16 18 1010.7 - 0.0 - - - - - - -
28/09:30pm 15.8 NNE 22 26 1010.2 - 0.0 - - - - - - -
28/09:00pm 15.9 NNE 23 27 1009.3 - 0.0 - - - - - - -
28/08:30pm 15.8 NNE 22 26 1009.2 - 0.0 - - - - - - -
28/08:00pm 15.9 NNE 22 27 1009.1 - 0.0 - - - - - - -
28/07:30pm 16.3 NNE 25 31 1008.8 - 0.0 - - - - - - -
28/07:00pm 16.0 NNE 24 29 1008.4 - 0.0 - - - - - - -
28/06:30pm 16.0 NNE 25 32 1008.0 - 0.0 - - - - - - -
28/06:23pm 16.1 NE 21 32 1007.8 - 0.0 - - - - - - -
28/06:00pm 16.0 NE 17 23 1007.9 - 0.0 - - - - - - -
28/05:30pm 16.0 NE 21 30 1007.3 - 0.0 - - - - - - -
28/05:00pm 15.7 NE 21 30 1006.7 - 0.0 - - - - - - -
28/04:30pm 15.7 NE 21 26 1006.8 - 0.0 - - - - - - -
28/04:11pm 15.7 NE 20 30 1006.9 - 0.0 - - - - - - -
28/04:00pm 15.8 NE 22 29 1006.9 - 0.0 - - - - - - -
28/03:30pm 15.7 NE 27 32 1007.1 - 0.0 - - - - - - -
28/03:00pm 15.7 NE 21 29 1007.8 - 0.0 - - - - - - -
28/02:30pm 16.2 NE 18 26 1008.6 - 0.0 - - - - - - -
28/02:01pm 16.3 NE 19 29 1009.3 - 0.0 - - - - - - -
28/02:00pm 16.2 NE 20 29 1009.2 - 0.0 - - - - - - -
28/01:30pm 16.4 NE 19 25 1009.3 - 0.0 - - - - - - -
28/01:00pm 16.5 NE 20 26 1010.2 - 0.0 - - - - - - -
28/12:30pm 16.1 NE 18 23 1010.6 - 0.0 - - - - - - -
28/12:00pm 15.9 NE 19 27 1011.2 - 0.0 - - - - - - -
28/11:38am 15.9 NE 17 27 1011.4 - 0.0 - - - - - - -
28/11:30am 16.1 NE 17 23 1011.4 - 0.0 - - - - - - -
28/11:00am 15.3 NE 16 24 1011.6 - 0.0 - - - - - - -
28/10:30am 15.4 NE 17 24 1012.0 - 0.0 - - - - - - -
28/10:00am 15.1 NE 16 22 1012.2 - 0.0 - - - - - - -
28/09:30am 15.2 NE 16 22 1012.4 - 0.0 - - - - - - -
28/09:00am 15.0 NE 16 23 1012.5 - 0.0 - - - - - - -
28/08:30am 14.8 NE 17 23 1012.7 - 0.0 - - - - - - -
28/08:00am 14.7 NE 18 23 1012.7 - 0.0 - - - - - - -
28/07:30am 14.7 NNE 18 23 1012.5 - 0.0 - - - - - - -
28/07:00am 14.6 NNE 19 23 1012.6 - 0.0 - - - - - - -
28/06:30am 14.7 NE 17 22 1012.5 - 0.0 - - - - - - -
28/06:00am 14.6 NE 17 21 1012.5 - 0.0 - - - - - - -
28/05:30am 14.6 NNE 17 20 1012.6 - 0.0 - - - - - - -
28/05:00am 14.7 NNE 16 19 1012.7 - 0.0 - - - - - - -
28/04:30am 14.6 NNE 16 19 1012.9 - 0.0 - - - - - - -
28/04:00am 14.7 NE 15 20 1012.8 - 0.0 - - - - - - -
28/03:30am 14.7 NE 14 19 1013.3 - 0.0 - - - - - - -
28/03:00am 14.8 NE 12 16 1013.6 - 0.0 - - - - - - -
28/02:30am 14.5 NE 12 16 1013.9 - 0.0 - - - - - - -
28/02:00am 14.5 NNE 13 15 1014.1 - 0.0 - - - - - - -
28/01:30am 14.6 NNE 14 16 1014.6 - 0.0 - - - - - - -
28/01:00am 14.6 NNE 16 18 1014.9 - 0.0 - - - - - - -
28/12:30am 14.8 NNE 14 16 1015.1 - 0.0 - - - - - - -
28/12:00am 14.9 NNE 14 16 1015.3 - 0.0 - - - - - - -
 
Date/Time
EST
Temp
°C
Wind Pressure Rain since
9am
mm
Weather Cloud Vis
km
Sea
Height
m
Swell
Dir  Spd
kts
Gust
kts
hPa Trend Height
m
Period
s
Dir
27/11:30pm 14.9 NNE 14 15 1015.4 - 0.0 - - - - - - -
27/11:00pm 14.9 NNE 14 16 1015.6 - 0.0 - - - - - - -
27/10:30pm 14.7 NNE 14 16 1015.5 - 0.0 - - - - - - -
27/10:00pm 14.7 NNE 17 19 1015.5 - 0.0 - - - - - - -
27/09:30pm 14.6 NNE 16 18 1015.6 - 0.0 - - - - - - -
27/09:00pm 14.7 NNE 17 19 1015.6 - 0.0 - - - - - - -
27/08:30pm 14.7 NNE 16 19 1015.5 - 0.0 - - - - - - -
27/08:00pm 14.8 NNE 17 20 1015.2 - 0.0 - - - - - - -
27/07:30pm 14.7 NNE 16 19 1015.3 - 0.0 - - - - - - -
27/07:00pm 14.7 NNE 15 18 1015.1 - 0.0 - - - - - - -
27/06:30pm 14.9 NNE 15 19 1014.9 - 0.0 - - - - - - -
27/06:00pm 15.3 NNE 13 15 1014.9 - 0.0 - - - - - - -
27/05:30pm 15.9 N 10 11 1014.9 - 0.0 - - - - - - -
27/05:00pm 16.4 N 10 11 1015.1 - 0.0 - - - - - - -
27/04:30pm 16.6 N 9 10 1015.1 - 0.0 - - - - - - -
27/04:00pm 16.9 N 9 11 1015.4 - 0.0 - - - - - - -
27/03:30pm 16.8 NW 10 11 1015.7 - 0.0 - - - - - - -
27/03:00pm 18.4 N 11 14 1015.7 - 0.0 - - - - - - -
27/02:30pm 18.0 N 13 16 1015.8 - 0.0 - - - - - - -
27/02:00pm 17.9 N 15 17 1016.1 - 0.0 - - - - - - -

Other Formats:

Comma delimited format used in spreadsheet applications
http://www.bom.gov.au/fwo/IDT60701/IDT60701.94804.axf

JavaScript Object Notation format (JSON) in row-major order
http://www.bom.gov.au/fwo/IDT60701/IDT60701.94804.json